createdAt,value
2023-02-12T00:01:51.158Z,84.28
2023-02-12T00:07:53.261Z,84.39
2023-02-12T00:13:21.072Z,83.95
2023-02-12T00:19:29.581Z,84.23
2023-02-12T00:25:13.505Z,84.33
2023-02-12T00:32:01.412Z,84.06
2023-02-12T00:38:33.331Z,84.14
2023-02-12T00:45:29.173Z,84.34
2023-02-12T00:51:34.805Z,84.26
2023-02-12T00:58:02.101Z,84.22
2023-02-12T01:04:18.756Z,84.26
2023-02-12T01:10:34.838Z,84.35
2023-02-12T01:16:25.623Z,84.30
2023-02-12T01:23:02.034Z,84.07
2023-02-12T01:29:23.900Z,84.03
2023-02-12T01:35:48.603Z,84.23
2023-02-12T01:42:35.828Z,84.23
2023-02-12T01:49:38.657Z,84.23
2023-02-12T01:56:26.604Z,84.02
2023-02-12T02:03:14.637Z,83.99
2023-02-12T02:10:09.839Z,83.99
2023-02-12T02:16:29.352Z,83.87
2023-02-12T02:23:26.389Z,83.86
2023-02-12T02:29:54.794Z,84.14
2023-02-12T02:36:41.445Z,83.79
2023-02-12T02:43:34.494Z,83.77
2023-02-12T02:50:33.535Z,83.82
2023-02-12T02:57:32.045Z,83.78
2023-02-12T03:04:40.828Z,83.64
2023-02-12T03:11:46.457Z,83.61
2023-02-12T03:18:49.278Z,83.65
2023-02-12T03:25:51.882Z,83.78
2023-02-12T03:32:22.725Z,83.56
2023-02-12T03:39:17.148Z,83.23
2023-02-12T03:45:59.774Z,83.38
2023-02-12T03:53:02.678Z,83.05
2023-02-12T04:00:05.586Z,82.67
2023-02-12T04:07:11.626Z,82.46
2023-02-12T04:14:36.373Z,82.62
2023-02-12T04:21:55.645Z,82.81
2023-02-12T04:29:05.985Z,82.85
2023-02-12T04:36:14.782Z,82.90
2023-02-12T04:43:13.825Z,82.77
2023-02-12T04:50:16.570Z,82.69
2023-02-12T04:57:13.761Z,82.74
2023-02-12T05:04:05.030Z,82.60
2023-02-12T05:10:47.668Z,82.46
2023-02-12T05:17:50.509Z,82.78
2023-02-12T05:24:53.296Z,82.69
2023-02-12T05:31:56.101Z,82.76
2023-02-12T05:38:36.054Z,82.70
2023-02-12T05:45:38.170Z,82.62
2023-02-12T05:52:40.943Z,82.71
2023-02-12T05:59:26.306Z,82.52
2023-02-12T06:06:18.897Z,82.56
2023-02-12T06:12:41.441Z,82.47
2023-02-12T06:19:31.164Z,82.56
2023-02-12T06:26:33.537Z,82.80
2023-02-12T06:33:15.977Z,82.87
2023-02-12T06:40:18.467Z,82.76
2023-02-12T06:47:09.769Z,82.67
2023-02-12T06:54:11.837Z,82.89
2023-02-12T07:00:39.682Z,82.75
2023-02-12T07:06:43.430Z,82.51
2023-02-12T07:13:06.562Z,82.47
2023-02-12T07:19:35.216Z,82.38
2023-02-12T07:24:39.981Z,82.02
2023-02-12T07:30:00.503Z,81.73
2023-02-12T07:35:21.441Z,81.57
2023-02-12T07:40:53.105Z,81.51
2023-02-12T07:47:03.840Z,81.10
2023-02-12T07:52:38.366Z,81.12
2023-02-12T07:58:33.562Z,83.74
2023-02-12T08:04:42.889Z,82.52
2023-02-12T08:11:46.080Z,84.15
2023-02-12T08:18:31.795Z,79.18
2023-02-12T08:25:24.855Z,74.56
2023-02-12T08:30:31.160Z,72.75
2023-02-12T08:36:34.254Z,72.55
2023-02-12T08:41:50.489Z,71.96
2023-02-12T08:47:12.805Z,71.86
2023-02-12T08:53:12.367Z,71.94
2023-02-12T08:58:48.542Z,72.18
2023-02-12T09:04:06.959Z,71.92
2023-02-12T09:09:51.277Z,71.41
2023-02-12T09:15:11.106Z,71.35
2023-02-12T09:20:18.440Z,71.24
2023-02-12T09:25:30.899Z,70.83
2023-02-12T09:30:55.614Z,71.04
2023-02-12T09:36:18.458Z,70.85
2023-02-12T09:41:39.757Z,71.11
2023-02-12T09:47:02.453Z,70.09
2023-02-12T09:52:56.369Z,69.62
2023-02-12T09:58:23.015Z,69.46
2023-02-12T10:04:15.807Z,69.64
2023-02-12T10:10:36.026Z,68.92
2023-02-12T10:16:30.775Z,69.06
2023-02-12T10:22:16.802Z,68.76
2023-02-12T10:28:09.083Z,68.72
2023-02-12T10:33:45.203Z,68.55
2023-02-12T10:38:58.349Z,68.46
2023-02-12T10:44:20.425Z,68.54
2023-02-12T10:50:02.584Z,68.60
2023-02-12T10:55:24.245Z,68.56
2023-02-12T11:00:33.006Z,68.79
2023-02-12T11:06:17.365Z,69.00
2023-02-12T11:11:37.425Z,68.68
2023-02-12T11:17:04.735Z,68.77
2023-02-12T11:22:18.475Z,68.79
2023-02-12T11:27:41.632Z,68.64
2023-02-12T11:32:57.015Z,68.74
2023-02-12T11:38:49.721Z,68.74
2023-02-12T11:44:32.023Z,68.82
2023-02-12T11:49:48.812Z,68.69
2023-02-12T11:55:01.069Z,68.76
2023-02-12T12:00:18.469Z,68.41
2023-02-12T12:05:59.997Z,68.31
2023-02-12T12:11:26.257Z,68.18
2023-02-12T12:17:13.834Z,67.99
2023-02-12T12:23:05.604Z,67.67
2023-02-12T12:28:38.967Z,67.56
2023-02-12T12:34:29.997Z,67.72
2023-02-12T12:40:00.046Z,67.39
2023-02-12T12:45:58.627Z,67.89
2023-02-12T12:51:08.959Z,67.20
2023-02-12T12:57:04.167Z,66.74
2023-02-12T13:02:30.632Z,65.98
2023-02-12T13:08:04.596Z,66.25
2023-02-12T13:13:53.280Z,66.44
2023-02-12T13:19:38.478Z,66.10
2023-02-12T13:25:19.035Z,65.83
2023-02-12T13:30:43.467Z,67.10
2023-02-12T13:36:12.745Z,66.80
2023-02-12T13:41:20.569Z,66.33
2023-02-12T13:46:44.210Z,65.98
2023-02-12T13:52:16.207Z,64.79
2023-02-12T13:58:25.932Z,64.10
2023-02-12T14:03:43.178Z,64.03
2023-02-12T14:08:56.456Z,63.59
2023-02-12T14:14:12.205Z,63.54
2023-02-12T14:19:41.928Z,63.85
2023-02-12T14:25:16.591Z,64.04
2023-02-12T14:30:26.626Z,64.35
2023-02-12T14:35:42.471Z,63.76
2023-02-12T14:40:46.614Z,63.55
2023-02-12T14:45:57.712Z,64.01
2023-02-12T14:51:02.462Z,64.11
2023-02-12T14:56:08.953Z,64.51
2023-02-12T15:01:11.668Z,64.65
2023-02-12T15:06:35.482Z,65.02
2023-02-12T15:11:44.690Z,65.33
2023-02-12T15:17:05.921Z,65.40
2023-02-12T15:22:31.382Z,65.66
2023-02-12T15:27:35.446Z,66.16
2023-02-12T15:32:45.442Z,66.42
2023-02-12T15:37:47.416Z,66.86
2023-02-12T15:43:57.126Z,67.51
2023-02-12T15:50:18.371Z,68.03
2023-02-12T15:55:54.089Z,68.72
2023-02-12T16:01:02.172Z,69.28
2023-02-12T16:06:10.570Z,69.66
2023-02-12T16:11:19.709Z,70.20
2023-02-12T16:17:05.515Z,70.35
2023-02-12T16:22:37.790Z,71.17
2023-02-12T16:28:38.983Z,71.39
2023-02-12T16:35:12.433Z,71.83
2023-02-12T16:41:29.170Z,72.37
2023-02-12T16:48:00.248Z,72.60
2023-02-12T16:54:30.708Z,73.01
2023-02-12T17:00:55.211Z,73.30
2023-02-12T17:07:16.461Z,74.01
2023-02-12T17:12:50.673Z,74.05
2023-02-12T17:19:00.458Z,74.08
2023-02-12T17:25:26.815Z,74.26
2023-02-12T17:30:31.851Z,74.53
2023-02-12T17:36:36.417Z,74.95
2023-02-12T17:42:56.471Z,74.81
2023-02-12T17:49:23.396Z,75.00
2023-02-12T17:55:44.945Z,75.22
2023-02-12T18:02:06.116Z,75.58
2023-02-12T18:07:33.324Z,75.83
2023-02-12T18:12:42.583Z,76.00
2023-02-12T18:18:00.295Z,76.29
2023-02-12T18:23:11.637Z,76.22
2023-02-12T18:28:16.374Z,76.04
2023-02-12T18:33:59.657Z,75.97
2023-02-12T18:39:24.470Z,76.51
2023-02-12T18:44:32.445Z,76.45
2023-02-12T18:49:33.986Z,76.34
2023-02-12T18:54:35.380Z,76.48
2023-02-12T18:59:36.851Z,76.66
2023-02-12T19:04:38.194Z,77.17
2023-02-12T19:09:39.823Z,77.25
2023-02-12T19:14:41.843Z,77.46
2023-02-12T19:19:43.517Z,77.46
2023-02-12T19:24:47.156Z,77.70
2023-02-12T19:29:48.641Z,77.81
2023-02-12T19:34:49.808Z,77.78
2023-02-12T19:39:51.084Z,77.85
2023-02-12T19:44:52.354Z,78.10
2023-02-12T19:49:54.479Z,78.31
2023-02-12T19:54:55.937Z,78.07
2023-02-12T19:59:57.709Z,78.24
2023-02-12T20:04:58.979Z,78.38
2023-02-12T20:10:00.585Z,78.59
2023-02-12T20:15:03.906Z,78.75
2023-02-12T20:20:06.297Z,78.67
2023-02-12T20:25:07.780Z,78.64
2023-02-12T20:30:09.272Z,78.94
2023-02-12T20:35:12.422Z,79.05
2023-02-12T20:40:13.748Z,79.13
2023-02-12T20:45:16.576Z,79.14
2023-02-12T20:50:18.045Z,79.28
2023-02-12T20:55:20.440Z,79.69
2023-02-12T21:00:21.738Z,79.54
2023-02-12T21:05:23.021Z,79.35
2023-02-12T21:10:24.296Z,79.21
2023-02-12T21:15:25.605Z,79.43
2023-02-12T21:20:26.936Z,79.94
2023-02-12T21:25:28.378Z,79.68
2023-02-12T21:30:29.802Z,79.31
2023-02-12T21:36:30.911Z,80.10
2023-02-12T21:42:51.842Z,80.13
2023-02-12T21:49:12.819Z,79.83
2023-02-12T21:55:33.794Z,79.98
2023-02-12T22:01:54.757Z,80.19
2023-02-12T22:07:16.124Z,79.95
2023-02-12T22:12:19.117Z,79.91
2023-02-12T22:17:20.310Z,79.81
2023-02-12T22:23:21.246Z,79.98
2023-02-12T22:28:50.940Z,80.20
2023-02-12T22:33:55.632Z,80.16
2023-02-12T22:38:59.697Z,80.38
2023-02-12T22:44:04.472Z,80.57
2023-02-12T22:49:09.877Z,80.57
2023-02-12T22:54:14.259Z,80.80
2023-02-12T22:59:16.023Z,81.05
2023-02-12T23:04:18.192Z,81.21
2023-02-12T23:10:19.390Z,81.30
2023-02-12T23:16:40.368Z,81.76
2023-02-12T23:23:01.463Z,82.03
2023-02-12T23:29:22.363Z,82.37
2023-02-12T23:35:43.553Z,82.12
2023-02-12T23:42:04.511Z,81.87
2023-02-12T23:48:25.627Z,81.94
2023-02-12T23:54:46.613Z,82.19
